sensor_id;sensor_type;location;lat;lon;timestamp;temperature;humidity
2363;DHT22;1192;51.664;7.626;2022-08-19T00:00:06;23.30;99.90
2363;DHT22;1192;51.664;7.626;2022-08-19T00:02:34;23.30;99.90
2363;DHT22;1192;51.664;7.626;2022-08-19T00:05:01;23.30;99.90
2363;DHT22;1192;51.664;7.626;2022-08-19T00:07:27;23.20;99.90
2363;DHT22;1192;51.664;7.626;2022-08-19T00:09:54;23.20;99.90
2363;DHT22;1192;51.664;7.626;2022-08-19T00:12:21;23.20;99.90
2363;DHT22;1192;51.664;7.626;2022-08-19T00:14:49;23.20;99.90
2363;DHT22;1192;51.664;7.626;2022-08-19T00:17:16;23.20;99.90
2363;DHT22;1192;51.664;7.626;2022-08-19T00:19:43;23.20;99.90
2363;DHT22;1192;51.664;7.626;2022-08-19T00:22:09;23.20;99.90
2363;DHT22;1192;51.664;7.626;2022-08-19T00:24:36;23.10;99.90
2363;DHT22;1192;51.664;7.626;2022-08-19T00:27:04;23.10;99.90
2363;DHT22;1192;51.664;7.626;2022-08-19T00:29:31;23.10;99.90
2363;DHT22;1192;51.664;7.626;2022-08-19T00:31:59;23.10;99.90
2363;DHT22;1192;51.664;7.626;2022-08-19T00:34:26;23.10;99.90
2363;DHT22;1192;51.664;7.626;2022-08-19T00:36:54;23.10;99.90
2363;DHT22;1192;51.664;7.626;2022-08-19T00:39:21;23.10;99.90
2363;DHT22;1192;51.664;7.626;2022-08-19T00:41:49;23.10;99.90
2363;DHT22;1192;51.664;7.626;2022-08-19T00:44:19;23.00;99.90
2363;DHT22;1192;51.664;7.626;2022-08-19T00:46:47;23.00;99.90
2363;DHT22;1192;51.664;7.626;2022-08-19T00:49:18;23.00;99.90
2363;DHT22;1192;51.664;7.626;2022-08-19T00:51:50;23.00;99.90
2363;DHT22;1192;51.664;7.626;2022-08-19T00:54:20;23.00;99.90
2363;DHT22;1192;51.664;7.626;2022-08-19T00:56:48;23.00;99.90
2363;DHT22;1192;51.664;7.626;2022-08-19T00:59:16;22.90;99.90
2363;DHT22;1192;51.664;7.626;2022-08-19T01:01:44;22.90;99.90
2363;DHT22;1192;51.664;7.626;2022-08-19T01:04:12;22.90;99.90
2363;DHT22;1192;51.664;7.626;2022-08-19T01:06:40;22.90;99.90
2363;DHT22;1192;51.664;7.626;2022-08-19T01:09:08;22.90;99.90
2363;DHT22;1192;51.664;7.626;2022-08-19T01:11:40;22.90;99.90
2363;DHT22;1192;51.664;7.626;2022-08-19T01:14:09;22.90;99.90
2363;DHT22;1192;51.664;7.626;2022-08-19T01:16:37;22.90;99.90
2363;DHT22;1192;51.664;7.626;2022-08-19T01:19:10;22.80;99.90
2363;DHT22;1192;51.664;7.626;2022-08-19T01:21:46;22.80;99.90
2363;DHT22;1192;51.664;7.626;2022-08-19T01:24:17;22.80;99.90
2363;DHT22;1192;51.664;7.626;2022-08-19T01:26:46;22.80;99.90
2363;DHT22;1192;51.664;7.626;2022-08-19T01:29:13;22.70;99.90
2363;DHT22;1192;51.664;7.626;2022-08-19T01:31:40;22.80;99.90
2363;DHT22;1192;51.664;7.626;2022-08-19T01:34:07;22.80;99.90
2363;DHT22;1192;51.664;7.626;2022-08-19T01:36:37;22.70;99.90
2363;DHT22;1192;51.664;7.626;2022-08-19T01:39:09;22.70;99.90
2363;DHT22;1192;51.664;7.626;2022-08-19T01:41:38;22.70;99.90
2363;DHT22;1192;51.664;7.626;2022-08-19T01:44:06;22.70;99.90
2363;DHT22;1192;51.664;7.626;2022-08-19T01:46:33;22.70;99.90
2363;DHT22;1192;51.664;7.626;2022-08-19T01:49:03;22.70;99.90
2363;DHT22;1192;51.664;7.626;2022-08-19T01:51:30;22.70;99.90
2363;DHT22;1192;51.664;7.626;2022-08-19T01:53:57;22.60;99.90
2363;DHT22;1192;51.664;7.626;2022-08-19T01:56:24;22.60;99.90
2363;DHT22;1192;51.664;7.626;2022-08-19T01:58:55;22.60;99.90
2363;DHT22;1192;51.664;7.626;2022-08-19T02:01:22;22.60;99.90
2363;DHT22;1192;51.664;7.626;2022-08-19T02:03:49;22.60;99.90
2363;DHT22;1192;51.664;7.626;2022-08-19T02:06:17;22.60;99.90
2363;DHT22;1192;51.664;7.626;2022-08-19T02:08:44;22.60;99.90
2363;DHT22;1192;51.664;7.626;2022-08-19T02:11:19;22.50;99.90
2363;DHT22;1192;51.664;7.626;2022-08-19T02:13:46;22.50;99.90
2363;DHT22;1192;51.664;7.626;2022-08-19T02:16:16;22.50;99.90
2363;DHT22;1192;51.664;7.626;2022-08-19T02:18:43;22.50;99.90
2363;DHT22;1192;51.664;7.626;2022-08-19T02:21:10;22.50;99.90
2363;DHT22;1192;51.664;7.626;2022-08-19T02:23:38;22.50;99.90
2363;DHT22;1192;51.664;7.626;2022-08-19T02:26:05;22.50;99.90
2363;DHT22;1192;51.664;7.626;2022-08-19T02:28:32;22.50;99.90
2363;DHT22;1192;51.664;7.626;2022-08-19T02:30:59;22.40;99.90
2363;DHT22;1192;51.664;7.626;2022-08-19T02:33:29;22.40;99.90
2363;DHT22;1192;51.664;7.626;2022-08-19T02:35:56;22.40;99.90
2363;DHT22;1192;51.664;7.626;2022-08-19T02:38:23;22.40;99.90
2363;DHT22;1192;51.664;7.626;2022-08-19T02:40:54;22.40;99.90
2363;DHT22;1192;51.664;7.626;2022-08-19T02:43:21;22.40;99.90
2363;DHT22;1192;51.664;7.626;2022-08-19T02:45:49;22.40;99.90
2363;DHT22;1192;51.664;7.626;2022-08-19T02:48:17;22.40;99.90
2363;DHT22;1192;51.664;7.626;2022-08-19T02:50:47;22.30;99.90
2363;DHT22;1192;51.664;7.626;2022-08-19T02:53:16;22.30;99.90
2363;DHT22;1192;51.664;7.626;2022-08-19T02:55:45;22.30;99.90
2363;DHT22;1192;51.664;7.626;2022-08-19T02:58:12;22.30;99.90
2363;DHT22;1192;51.664;7.626;2022-08-19T03:00:44;22.30;99.90
2363;DHT22;1192;51.664;7.626;2022-08-19T03:03:11;22.30;99.90
2363;DHT22;1192;51.664;7.626;2022-08-19T03:05:38;22.30;99.90
2363;DHT22;1192;51.664;7.626;2022-08-19T03:08:06;22.20;99.90
2363;DHT22;1192;51.664;7.626;2022-08-19T03:10:40;22.20;99.90
2363;DHT22;1192;51.664;7.626;2022-08-19T03:13:07;22.20;99.90
2363;DHT22;1192;51.664;7.626;2022-08-19T03:15:34;22.20;99.90
2363;DHT22;1192;51.664;7.626;2022-08-19T03:18:00;22.20;99.90
2363;DHT22;1192;51.664;7.626;2022-08-19T03:20:27;22.20;99.90
2363;DHT22;1192;51.664;7.626;2022-08-19T03:22:54;22.20;99.90
2363;DHT22;1192;51.664;7.626;2022-08-19T03:25:22;22.20;99.90
2363;DHT22;1192;51.664;7.626;2022-08-19T03:27:49;22.20;99.90
2363;DHT22;1192;51.664;7.626;2022-08-19T03:30:15;22.10;99.90
2363;DHT22;1192;51.664;7.626;2022-08-19T03:32:42;22.10;99.90
2363;DHT22;1192;51.664;7.626;2022-08-19T03:35:09;22.10;99.90
2363;DHT22;1192;51.664;7.626;2022-08-19T03:37:36;22.10;99.90
2363;DHT22;1192;51.664;7.626;2022-08-19T03:40:03;22.10;99.90
2363;DHT22;1192;51.664;7.626;2022-08-19T03:42:31;22.10;99.90
2363;DHT22;1192;51.664;7.626;2022-08-19T03:44:58;22.10;99.90
2363;DHT22;1192;51.664;7.626;2022-08-19T03:47:25;22.10;99.90
2363;DHT22;1192;51.664;7.626;2022-08-19T03:49:52;22.00;99.90
2363;DHT22;1192;51.664;7.626;2022-08-19T03:52:18;22.00;99.90
2363;DHT22;1192;51.664;7.626;2022-08-19T03:54:45;22.00;99.90
2363;DHT22;1192;51.664;7.626;2022-08-19T03:57:12;22.00;99.90
2363;DHT22;1192;51.664;7.626;2022-08-19T03:59:40;22.00;99.90
2363;DHT22;1192;51.664;7.626;2022-08-19T04:02:09;22.00;99.90
2363;DHT22;1192;51.664;7.626;2022-08-19T04:04:37;22.00;99.90
2363;DHT22;1192;51.664;7.626;2022-08-19T04:07:05;22.00;99.90
2363;DHT22;1192;51.664;7.626;2022-08-19T04:09:34;21.90;99.90
2363;DHT22;1192;51.664;7.626;2022-08-19T04:12:02;21.90;99.90
2363;DHT22;1192;51.664;7.626;2022-08-19T04:14:31;21.90;99.90
2363;DHT22;1192;51.664;7.626;2022-08-19T04:17:01;21.90;99.90
2363;DHT22;1192;51.664;7.626;2022-08-19T04:19:29;21.90;99.90
2363;DHT22;1192;51.664;7.626;2022-08-19T04:21:56;21.90;99.90
2363;DHT22;1192;51.664;7.626;2022-08-19T04:24:23;21.90;99.90
2363;DHT22;1192;51.664;7.626;2022-08-19T04:26:50;21.90;99.90
2363;DHT22;1192;51.664;7.626;2022-08-19T04:29:19;21.90;99.90
2363;DHT22;1192;51.664;7.626;2022-08-19T04:31:47;21.80;99.90
2363;DHT22;1192;51.664;7.626;2022-08-19T04:34:17;21.80;99.90
2363;DHT22;1192;51.664;7.626;2022-08-19T04:36:47;21.80;99.90
2363;DHT22;1192;51.664;7.626;2022-08-19T04:39:17;21.80;99.90
2363;DHT22;1192;51.664;7.626;2022-08-19T04:41:45;21.80;99.90
2363;DHT22;1192;51.664;7.626;2022-08-19T04:44:30;21.80;99.90
2363;DHT22;1192;51.664;7.626;2022-08-19T04:46:57;21.80;99.90
2363;DHT22;1192;51.664;7.626;2022-08-19T04:49:25;21.80;99.90
2363;DHT22;1192;51.664;7.626;2022-08-19T04:51:53;21.70;99.90
2363;DHT22;1192;51.664;7.626;2022-08-19T04:54:22;21.70;99.90
2363;DHT22;1192;51.664;7.626;2022-08-19T04:56:51;21.70;99.90
2363;DHT22;1192;51.664;7.626;2022-08-19T04:59:19;21.70;99.90
2363;DHT22;1192;51.664;7.626;2022-08-19T05:01:48;21.70;99.90
2363;DHT22;1192;51.664;7.626;2022-08-19T05:04:18;21.70;99.90
2363;DHT22;1192;51.664;7.626;2022-08-19T05:06:47;21.70;99.90
2363;DHT22;1192;51.664;7.626;2022-08-19T05:09:15;21.70;99.90
2363;DHT22;1192;51.664;7.626;2022-08-19T05:11:42;21.70;99.90
2363;DHT22;1192;51.664;7.626;2022-08-19T05:14:10;21.70;99.90
2363;DHT22;1192;51.664;7.626;2022-08-19T05:16:39;21.70;99.90
2363;DHT22;1192;51.664;7.626;2022-08-19T05:19:05;21.70;99.90
2363;DHT22;1192;51.664;7.626;2022-08-19T05:21:51;21.70;99.90
2363;DHT22;1192;51.664;7.626;2022-08-19T05:24:35;21.70;99.90
2363;DHT22;1192;51.664;7.626;2022-08-19T05:27:03;21.70;99.90
2363;DHT22;1192;51.664;7.626;2022-08-19T05:29:32;21.60;99.90
2363;DHT22;1192;51.664;7.626;2022-08-19T05:32:00;21.60;99.90
2363;DHT22;1192;51.664;7.626;2022-08-19T05:34:27;21.60;99.90
2363;DHT22;1192;51.664;7.626;2022-08-19T05:36:57;21.60;99.90
2363;DHT22;1192;51.664;7.626;2022-08-19T05:39:26;21.70;99.90
2363;DHT22;1192;51.664;7.626;2022-08-19T05:41:55;21.70;99.90
2363;DHT22;1192;51.664;7.626;2022-08-19T05:44:24;21.70;99.90
2363;DHT22;1192;51.664;7.626;2022-08-19T05:46:51;21.70;99.90
2363;DHT22;1192;51.664;7.626;2022-08-19T05:49:20;21.70;99.90
2363;DHT22;1192;51.664;7.626;2022-08-19T05:51:48;21.70;99.90
2363;DHT22;1192;51.664;7.626;2022-08-19T05:54:16;21.70;99.90
2363;DHT22;1192;51.664;7.626;2022-08-19T05:56:43;21.70;99.90
2363;DHT22;1192;51.664;7.626;2022-08-19T05:59:14;21.80;99.90
2363;DHT22;1192;51.664;7.626;2022-08-19T06:01:43;21.80;99.90
2363;DHT22;1192;51.664;7.626;2022-08-19T06:04:11;21.80;99.90
2363;DHT22;1192;51.664;7.626;2022-08-19T06:06:40;21.90;99.90
2363;DHT22;1192;51.664;7.626;2022-08-19T06:09:07;21.90;99.90
2363;DHT22;1192;51.664;7.626;2022-08-19T06:11:39;22.00;99.90
2363;DHT22;1192;51.664;7.626;2022-08-19T06:14:09;22.00;99.90
2363;DHT22;1192;51.664;7.626;2022-08-19T06:16:37;22.00;99.90
2363;DHT22;1192;51.664;7.626;2022-08-19T06:19:05;22.00;99.90
2363;DHT22;1192;51.664;7.626;2022-08-19T06:21:34;22.00;99.90
2363;DHT22;1192;51.664;7.626;2022-08-19T06:24:04;22.10;99.90
2363;DHT22;1192;51.664;7.626;2022-08-19T06:26:33;22.20;99.90
2363;DHT22;1192;51.664;7.626;2022-08-19T06:29:02;22.20;99.90
2363;DHT22;1192;51.664;7.626;2022-08-19T06:31:32;22.30;99.90
2363;DHT22;1192;51.664;7.626;2022-08-19T06:34:00;22.30;99.90
2363;DHT22;1192;51.664;7.626;2022-08-19T06:36:29;22.30;99.90
2363;DHT22;1192;51.664;7.626;2022-08-19T06:38:59;22.30;99.90
2363;DHT22;1192;51.664;7.626;2022-08-19T06:41:28;22.20;99.90
2363;DHT22;1192;51.664;7.626;2022-08-19T06:43:55;22.20;99.90
2363;DHT22;1192;51.664;7.626;2022-08-19T06:46:24;22.20;99.90
2363;DHT22;1192;51.664;7.626;2022-08-19T06:48:51;22.20;99.90
2363;DHT22;1192;51.664;7.626;2022-08-19T06:51:20;22.10;99.90
2363;DHT22;1192;51.664;7.626;2022-08-19T06:53:47;22.10;99.90
2363;DHT22;1192;51.664;7.626;2022-08-19T06:56:16;22.10;99.90
2363;DHT22;1192;51.664;7.626;2022-08-19T06:58:43;22.20;99.90
2363;DHT22;1192;51.664;7.626;2022-08-19T07:01:10;22.40;99.90
2363;DHT22;1192;51.664;7.626;2022-08-19T07:03:38;22.50;99.90
2363;DHT22;1192;51.664;7.626;2022-08-19T07:06:08;22.60;99.90
2363;DHT22;1192;51.664;7.626;2022-08-19T07:08:36;22.70;99.90
2363;DHT22;1192;51.664;7.626;2022-08-19T07:11:05;22.80;99.90
2363;DHT22;1192;51.664;7.626;2022-08-19T07:13:33;23.00;99.90
2363;DHT22;1192;51.664;7.626;2022-08-19T07:16:03;23.10;99.90
2363;DHT22;1192;51.664;7.626;2022-08-19T07:18:30;23.20;99.90
2363;DHT22;1192;51.664;7.626;2022-08-19T07:21:04;23.30;99.90
2363;DHT22;1192;51.664;7.626;2022-08-19T07:23:31;23.40;99.90
2363;DHT22;1192;51.664;7.626;2022-08-19T07:25:58;23.40;99.90
2363;DHT22;1192;51.664;7.626;2022-08-19T07:28:25;23.50;99.90
2363;DHT22;1192;51.664;7.626;2022-08-19T07:30:52;23.50;99.90
2363;DHT22;1192;51.664;7.626;2022-08-19T07:33:18;23.60;99.90
2363;DHT22;1192;51.664;7.626;2022-08-19T07:35:45;23.50;99.90
2363;DHT22;1192;51.664;7.626;2022-08-19T07:38:13;23.50;99.90
2363;DHT22;1192;51.664;7.626;2022-08-19T07:40:41;23.50;99.90
2363;DHT22;1192;51.664;7.626;2022-08-19T07:43:08;23.40;99.90
2363;DHT22;1192;51.664;7.626;2022-08-19T07:45:35;23.40;99.90
2363;DHT22;1192;51.664;7.626;2022-08-19T07:48:03;23.40;99.90
2363;DHT22;1192;51.664;7.626;2022-08-19T07:50:30;23.30;99.90
2363;DHT22;1192;51.664;7.626;2022-08-19T07:52:57;23.40;99.90
2363;DHT22;1192;51.664;7.626;2022-08-19T07:55:26;23.40;99.90
2363;DHT22;1192;51.664;7.626;2022-08-19T07:57:53;23.40;99.90
2363;DHT22;1192;51.664;7.626;2022-08-19T08:00:20;23.50;99.90
2363;DHT22;1192;51.664;7.626;2022-08-19T08:02:47;23.60;99.90
2363;DHT22;1192;51.664;7.626;2022-08-19T08:05:13;23.70;99.90
2363;DHT22;1192;51.664;7.626;2022-08-19T08:08:09;23.80;99.90
2363;DHT22;1192;51.664;7.626;2022-08-19T08:11:03;23.90;99.90
2363;DHT22;1192;51.664;7.626;2022-08-19T08:13:30;24.00;99.90
2363;DHT22;1192;51.664;7.626;2022-08-19T08:15:58;24.10;99.90
2363;DHT22;1192;51.664;7.626;2022-08-19T08:18:25;24.20;99.90
2363;DHT22;1192;51.664;7.626;2022-08-19T08:20:52;24.20;99.90
2363;DHT22;1192;51.664;7.626;2022-08-19T08:23:20;24.20;99.90
2363;DHT22;1192;51.664;7.626;2022-08-19T08:25:52;24.30;99.90
2363;DHT22;1192;51.664;7.626;2022-08-19T08:28:22;24.30;99.90
2363;DHT22;1192;51.664;7.626;2022-08-19T08:30:49;24.30;99.90
2363;DHT22;1192;51.664;7.626;2022-08-19T08:33:18;24.40;99.90
2363;DHT22;1192;51.664;7.626;2022-08-19T08:35:45;24.50;99.90
2363;DHT22;1192;51.664;7.626;2022-08-19T08:38:13;24.50;99.90
2363;DHT22;1192;51.664;7.626;2022-08-19T08:40:45;24.60;99.90
2363;DHT22;1192;51.664;7.626;2022-08-19T08:43:23;24.60;99.90
2363;DHT22;1192;51.664;7.626;2022-08-19T08:45:55;24.70;99.90
2363;DHT22;1192;51.664;7.626;2022-08-19T08:48:30;24.70;99.90
2363;DHT22;1192;51.664;7.626;2022-08-19T08:51:02;24.80;99.90
2363;DHT22;1192;51.664;7.626;2022-08-19T08:53:31;24.80;99.90
2363;DHT22;1192;51.664;7.626;2022-08-19T08:55:58;24.80;99.90
2363;DHT22;1192;51.664;7.626;2022-08-19T08:58:42;24.90;99.90
2363;DHT22;1192;51.664;7.626;2022-08-19T09:01:11;25.00;99.90
2363;DHT22;1192;51.664;7.626;2022-08-19T09:03:40;25.00;99.90
2363;DHT22;1192;51.664;7.626;2022-08-19T09:06:14;25.10;99.90
2363;DHT22;1192;51.664;7.626;2022-08-19T09:08:47;25.10;99.90
2363;DHT22;1192;51.664;7.626;2022-08-19T09:11:19;25.20;99.90
2363;DHT22;1192;51.664;7.626;2022-08-19T09:14:02;25.30;99.90
2363;DHT22;1192;51.664;7.626;2022-08-19T09:16:31;25.20;99.90
2363;DHT22;1192;51.664;7.626;2022-08-19T09:19:02;25.20;99.90
2363;DHT22;1192;51.664;7.626;2022-08-19T09:21:29;25.20;99.90
2363;DHT22;1192;51.664;7.626;2022-08-19T09:23:56;25.20;99.90
2363;DHT22;1192;51.664;7.626;2022-08-19T09:26:24;25.20;99.90
2363;DHT22;1192;51.664;7.626;2022-08-19T09:28:52;25.20;99.90
2363;DHT22;1192;51.664;7.626;2022-08-19T09:31:23;25.10;99.90
2363;DHT22;1192;51.664;7.626;2022-08-19T09:33:50;25.10;99.90
2363;DHT22;1192;51.664;7.626;2022-08-19T09:36:20;25.00;99.90
2363;DHT22;1192;51.664;7.626;2022-08-19T09:38:47;24.90;99.90
2363;DHT22;1192;51.664;7.626;2022-08-19T09:41:17;24.90;99.90
2363;DHT22;1192;51.664;7.626;2022-08-19T09:43:46;24.90;99.90
2363;DHT22;1192;51.664;7.626;2022-08-19T09:46:15;24.80;99.90
2363;DHT22;1192;51.664;7.626;2022-08-19T09:48:43;24.80;99.90
2363;DHT22;1192;51.664;7.626;2022-08-19T09:51:15;24.80;99.90
2363;DHT22;1192;51.664;7.626;2022-08-19T09:53:43;24.90;99.90
2363;DHT22;1192;51.664;7.626;2022-08-19T09:56:11;24.90;99.90
2363;DHT22;1192;51.664;7.626;2022-08-19T09:58:39;24.90;99.90
2363;DHT22;1192;51.664;7.626;2022-08-19T10:01:07;25.00;99.90
2363;DHT22;1192;51.664;7.626;2022-08-19T10:03:36;25.00;99.90
2363;DHT22;1192;51.664;7.626;2022-08-19T10:06:05;25.10;99.90
2363;DHT22;1192;51.664;7.626;2022-08-19T10:08:35;25.10;99.90
2363;DHT22;1192;51.664;7.626;2022-08-19T10:11:03;25.10;99.90
2363;DHT22;1192;51.664;7.626;2022-08-19T10:13:32;25.10;99.90
2363;DHT22;1192;51.664;7.626;2022-08-19T10:16:05;25.10;99.90
2363;DHT22;1192;51.664;7.626;2022-08-19T10:18:33;25.20;99.90
2363;DHT22;1192;51.664;7.626;2022-08-19T10:21:07;25.20;99.90
2363;DHT22;1192;51.664;7.626;2022-08-19T10:23:36;25.10;99.90
2363;DHT22;1192;51.664;7.626;2022-08-19T10:26:04;25.10;99.90
2363;DHT22;1192;51.664;7.626;2022-08-19T10:28:32;25.10;99.90
2363;DHT22;1192;51.664;7.626;2022-08-19T10:31:04;25.10;99.90
2363;DHT22;1192;51.664;7.626;2022-08-19T10:33:32;25.10;99.90
2363;DHT22;1192;51.664;7.626;2022-08-19T10:35:59;25.10;99.90
2363;DHT22;1192;51.664;7.626;2022-08-19T10:38:28;25.10;99.90
2363;DHT22;1192;51.664;7.626;2022-08-19T10:40:55;25.20;99.90
2363;DHT22;1192;51.664;7.626;2022-08-19T10:43:22;25.20;99.90
2363;DHT22;1192;51.664;7.626;2022-08-19T10:45:52;25.20;99.90
2363;DHT22;1192;51.664;7.626;2022-08-19T10:48:20;25.30;99.90
2363;DHT22;1192;51.664;7.626;2022-08-19T10:50:47;25.30;99.90
2363;DHT22;1192;51.664;7.626;2022-08-19T10:53:32;25.30;99.90
2363;DHT22;1192;51.664;7.626;2022-08-19T10:55:59;25.30;99.90
2363;DHT22;1192;51.664;7.626;2022-08-19T10:58:43;25.30;99.90
2363;DHT22;1192;51.664;7.626;2022-08-19T11:01:10;25.30;99.90
2363;DHT22;1192;51.664;7.626;2022-08-19T11:03:37;25.30;99.90
2363;DHT22;1192;51.664;7.626;2022-08-19T11:06:05;25.30;99.90
2363;DHT22;1192;51.664;7.626;2022-08-19T11:08:35;25.30;99.90
2363;DHT22;1192;51.664;7.626;2022-08-19T11:11:03;25.30;99.90
2363;DHT22;1192;51.664;7.626;2022-08-19T11:13:32;25.30;99.90
2363;DHT22;1192;51.664;7.626;2022-08-19T11:16:05;25.30;99.90
2363;DHT22;1192;51.664;7.626;2022-08-19T11:18:34;25.30;99.90
2363;DHT22;1192;51.664;7.626;2022-08-19T11:21:07;25.30;99.90
2363;DHT22;1192;51.664;7.626;2022-08-19T11:23:35;25.20;99.90
2363;DHT22;1192;51.664;7.626;2022-08-19T11:26:02;25.20;99.90
2363;DHT22;1192;51.664;7.626;2022-08-19T11:28:29;25.20;99.90
2363;DHT22;1192;51.664;7.626;2022-08-19T11:30:56;25.20;99.90
2363;DHT22;1192;51.664;7.626;2022-08-19T11:33:22;25.20;99.90
2363;DHT22;1192;51.664;7.626;2022-08-19T11:35:51;25.20;99.90
2363;DHT22;1192;51.664;7.626;2022-08-19T11:38:18;25.20;99.90
2363;DHT22;1192;51.664;7.626;2022-08-19T11:40:54;25.20;99.90
2363;DHT22;1192;51.664;7.626;2022-08-19T11:43:21;25.30;99.90
2363;DHT22;1192;51.664;7.626;2022-08-19T11:45:47;25.20;99.90
2363;DHT22;1192;51.664;7.626;2022-08-19T11:48:14;25.30;99.90
2363;DHT22;1192;51.664;7.626;2022-08-19T11:50:41;25.30;99.90
2363;DHT22;1192;51.664;7.626;2022-08-19T11:53:09;25.30;99.90
2363;DHT22;1192;51.664;7.626;2022-08-19T11:55:37;25.30;99.90
2363;DHT22;1192;51.664;7.626;2022-08-19T11:58:06;25.30;99.90
2363;DHT22;1192;51.664;7.626;2022-08-19T12:00:33;25.40;99.90
2363;DHT22;1192;51.664;7.626;2022-08-19T12:03:02;25.40;99.90
2363;DHT22;1192;51.664;7.626;2022-08-19T12:05:29;25.40;99.90
2363;DHT22;1192;51.664;7.626;2022-08-19T12:07:56;25.30;99.90
2363;DHT22;1192;51.664;7.626;2022-08-19T12:10:23;25.40;99.90
2363;DHT22;1192;51.664;7.626;2022-08-19T12:12:50;25.30;99.90
2363;DHT22;1192;51.664;7.626;2022-08-19T12:15:18;25.30;99.90
2363;DHT22;1192;51.664;7.626;2022-08-19T12:17:45;25.30;99.90
2363;DHT22;1192;51.664;7.626;2022-08-19T12:20:13;25.40;99.90
2363;DHT22;1192;51.664;7.626;2022-08-19T12:22:41;25.30;99.90
2363;DHT22;1192;51.664;7.626;2022-08-19T12:25:09;25.30;99.90
2363;DHT22;1192;51.664;7.626;2022-08-19T12:27:37;25.30;99.90
2363;DHT22;1192;51.664;7.626;2022-08-19T12:30:05;25.30;99.90
2363;DHT22;1192;51.664;7.626;2022-08-19T12:32:34;25.30;99.90
2363;DHT22;1192;51.664;7.626;2022-08-19T12:35:01;25.40;99.90
2363;DHT22;1192;51.664;7.626;2022-08-19T12:37:27;25.40;99.90
2363;DHT22;1192;51.664;7.626;2022-08-19T12:39:57;25.30;99.90
2363;DHT22;1192;51.664;7.626;2022-08-19T12:42:23;25.40;99.90
2363;DHT22;1192;51.664;7.626;2022-08-19T12:44:50;25.40;99.90
2363;DHT22;1192;51.664;7.626;2022-08-19T12:47:18;25.40;99.90
2363;DHT22;1192;51.664;7.626;2022-08-19T12:49:48;25.40;99.90
2363;DHT22;1192;51.664;7.626;2022-08-19T12:52:15;25.40;99.90
2363;DHT22;1192;51.664;7.626;2022-08-19T12:54:42;25.40;99.90
2363;DHT22;1192;51.664;7.626;2022-08-19T12:57:10;25.40;99.90
2363;DHT22;1192;51.664;7.626;2022-08-19T12:59:38;25.40;99.90
2363;DHT22;1192;51.664;7.626;2022-08-19T13:02:05;25.40;99.90
2363;DHT22;1192;51.664;7.626;2022-08-19T13:04:33;25.50;99.90
2363;DHT22;1192;51.664;7.626;2022-08-19T13:07:03;25.50;99.90
2363;DHT22;1192;51.664;7.626;2022-08-19T13:09:30;25.50;99.90
2363;DHT22;1192;51.664;7.626;2022-08-19T13:11:57;25.50;99.90
2363;DHT22;1192;51.664;7.626;2022-08-19T13:14:25;25.50;99.90
2363;DHT22;1192;51.664;7.626;2022-08-19T13:16:52;25.50;99.90
2363;DHT22;1192;51.664;7.626;2022-08-19T13:19:19;25.50;99.90
2363;DHT22;1192;51.664;7.626;2022-08-19T13:21:49;25.50;99.90
2363;DHT22;1192;51.664;7.626;2022-08-19T13:24:17;25.60;99.90
2363;DHT22;1192;51.664;7.626;2022-08-19T13:26:44;25.60;99.90
2363;DHT22;1192;51.664;7.626;2022-08-19T13:29:11;25.60;99.90
2363;DHT22;1192;51.664;7.626;2022-08-19T13:31:55;25.60;99.90
2363;DHT22;1192;51.664;7.626;2022-08-19T13:34:39;25.60;99.90
2363;DHT22;1192;51.664;7.626;2022-08-19T13:37:06;25.60;99.90
2363;DHT22;1192;51.664;7.626;2022-08-19T13:39:35;25.60;99.90
2363;DHT22;1192;51.664;7.626;2022-08-19T13:42:02;25.60;99.90
2363;DHT22;1192;51.664;7.626;2022-08-19T13:44:30;25.70;99.90
2363;DHT22;1192;51.664;7.626;2022-08-19T13:47:00;25.70;99.90
2363;DHT22;1192;51.664;7.626;2022-08-19T13:49:31;25.70;99.90
2363;DHT22;1192;51.664;7.626;2022-08-19T13:51:58;25.70;99.90
2363;DHT22;1192;51.664;7.626;2022-08-19T13:54:24;25.70;99.90
2363;DHT22;1192;51.664;7.626;2022-08-19T13:56:53;25.70;99.90
2363;DHT22;1192;51.664;7.626;2022-08-19T13:59:20;25.70;99.90
2363;DHT22;1192;51.664;7.626;2022-08-19T14:01:47;25.70;99.90
2363;DHT22;1192;51.664;7.626;2022-08-19T14:04:13;25.70;99.90
2363;DHT22;1192;51.664;7.626;2022-08-19T14:06:40;25.70;99.90
2363;DHT22;1192;51.664;7.626;2022-08-19T14:09:07;25.70;99.90
2363;DHT22;1192;51.664;7.626;2022-08-19T14:11:34;25.70;99.90
2363;DHT22;1192;51.664;7.626;2022-08-19T14:14:02;25.70;99.90
2363;DHT22;1192;51.664;7.626;2022-08-19T14:16:28;25.70;99.90
2363;DHT22;1192;51.664;7.626;2022-08-19T14:18:55;25.70;99.90
2363;DHT22;1192;51.664;7.626;2022-08-19T14:21:23;25.70;99.90
2363;DHT22;1192;51.664;7.626;2022-08-19T14:23:51;25.70;99.90
2363;DHT22;1192;51.664;7.626;2022-08-19T14:26:20;25.70;99.90
2363;DHT22;1192;51.664;7.626;2022-08-19T14:28:47;25.70;99.90
2363;DHT22;1192;51.664;7.626;2022-08-19T14:31:17;25.70;99.90
2363;DHT22;1192;51.664;7.626;2022-08-19T14:33:45;25.70;99.90
2363;DHT22;1192;51.664;7.626;2022-08-19T14:36:12;25.70;99.90
2363;DHT22;1192;51.664;7.626;2022-08-19T14:38:39;25.70;99.90
2363;DHT22;1192;51.664;7.626;2022-08-19T14:41:11;25.80;99.90
2363;DHT22;1192;51.664;7.626;2022-08-19T14:43:39;25.70;99.90
2363;DHT22;1192;51.664;7.626;2022-08-19T14:46:06;25.80;99.90
2363;DHT22;1192;51.664;7.626;2022-08-19T14:48:36;25.80;99.90
2363;DHT22;1192;51.664;7.626;2022-08-19T14:51:04;25.80;99.90
2363;DHT22;1192;51.664;7.626;2022-08-19T14:53:31;25.70;99.90
2363;DHT22;1192;51.664;7.626;2022-08-19T14:55:59;25.80;99.90
2363;DHT22;1192;51.664;7.626;2022-08-19T14:58:27;25.80;99.90
2363;DHT22;1192;51.664;7.626;2022-08-19T15:00:54;25.70;99.90
2363;DHT22;1192;51.664;7.626;2022-08-19T15:03:21;25.70;99.90
2363;DHT22;1192;51.664;7.626;2022-08-19T15:05:49;25.80;99.90
2363;DHT22;1192;51.664;7.626;2022-08-19T15:08:16;25.80;99.90
2363;DHT22;1192;51.664;7.626;2022-08-19T15:10:42;25.70;99.90
2363;DHT22;1192;51.664;7.626;2022-08-19T15:13:09;25.80;99.90
2363;DHT22;1192;51.664;7.626;2022-08-19T15:15:36;25.80;99.90
2363;DHT22;1192;51.664;7.626;2022-08-19T15:18:04;25.80;98.20
2363;DHT22;1192;51.664;7.626;2022-08-19T15:20:31;25.80;99.30
2363;DHT22;1192;51.664;7.626;2022-08-19T15:22:59;25.80;99.90
2363;DHT22;1192;51.664;7.626;2022-08-19T15:25:26;25.80;99.90
2363;DHT22;1192;51.664;7.626;2022-08-19T15:27:53;25.80;99.90
2363;DHT22;1192;51.664;7.626;2022-08-19T15:30:22;25.80;99.90
2363;DHT22;1192;51.664;7.626;2022-08-19T15:32:49;25.80;99.90
2363;DHT22;1192;51.664;7.626;2022-08-19T15:35:18;25.80;99.90
2363;DHT22;1192;51.664;7.626;2022-08-19T15:37:48;25.80;99.90
2363;DHT22;1192;51.664;7.626;2022-08-19T15:40:16;25.80;97.30
2363;DHT22;1192;51.664;7.626;2022-08-19T15:42:43;25.90;97.70
2363;DHT22;1192;51.664;7.626;2022-08-19T15:45:12;25.90;98.70
2363;DHT22;1192;51.664;7.626;2022-08-19T15:47:40;25.90;98.90
2363;DHT22;1192;51.664;7.626;2022-08-19T15:50:08;25.90;98.80
2363;DHT22;1192;51.664;7.626;2022-08-19T15:52:35;25.90;98.90
2363;DHT22;1192;51.664;7.626;2022-08-19T15:55:04;25.90;98.80
2363;DHT22;1192;51.664;7.626;2022-08-19T15:57:33;25.90;98.80
2363;DHT22;1192;51.664;7.626;2022-08-19T16:00:17;25.90;99.00
2363;DHT22;1192;51.664;7.626;2022-08-19T16:03:01;25.90;98.90
2363;DHT22;1192;51.664;7.626;2022-08-19T16:05:46;25.90;99.10
2363;DHT22;1192;51.664;7.626;2022-08-19T16:08:30;25.90;99.10
2363;DHT22;1192;51.664;7.626;2022-08-19T16:10:56;25.90;99.10